Time;durP1;ratioP1;P1;durP2;ratioP2;P2;SDS_P1;SDS_P2;PMS_P1;PMS_P2;Temp;Humidity;BMP_temperature;BMP_pressure;BME280_temperature;BME280_humidity;BME280_pressure;Samples;Min_cycle;Max_cycle;Signal;HPM_P1;HPM_P2
2023/07/03 00:00:45;;;;;;;8.55;3.47;;;;;;;-146.25;69.96;52082.31;2087134;28;34805;-78
2023/07/03 00:01:49;;;;;;;11.27;3.55;;;;;;;-146.25;69.48;52102.59;2088039;28;20053;-79
2023/07/03 00:02:52;;;;;;;8.80;2.85;;;;;;;-146.25;69.41;52104.63;2087269;28;37529;-78
2023/07/03 00:03:57;;;;;;;9.57;3.70;;;;;;;-146.25;69.95;52104.63;2087546;28;35321;-79
2023/07/03 00:04:58;;;;;;;9.23;3.30;;;;;;;-146.25;70.10;52120.84;2087107;28;33120;-78
2023/07/03 00:06:01;;;;;;;12.10;3.22;;;;;;;-146.25;69.68;52094.47;2087561;28;38157;-79
2023/07/03 00:07:05;;;;;;;9.40;3.70;;;;;;;-146.25;69.66;52135.03;2088029;28;20034;-78
2023/07/03 00:08:10;;;;;;;7.47;3.40;;;;;;;-146.25;69.46;52118.81;2094521;28;35783;-80
2023/07/03 00:09:12;;;;;;;10.07;3.67;;;;;;;-146.25;69.28;52120.84;2094446;28;32970;-79
2023/07/03 00:10:14;;;;;;;7.93;3.35;;;;;;;-146.25;69.35;52100.56;2087993;28;20042;-79
2023/07/03 00:11:16;;;;;;;8.50;3.30;;;;;;;-146.25;69.56;52120.84;2087299;28;35848;-78
2023/07/03 00:12:18;;;;;;;11.43;3.55;;;;;;;-146.25;69.77;52104.63;2088629;28;35951;-80
2023/07/03 00:13:20;;;;;;;10.07;3.17;;;;;;;-146.25;69.85;52124.91;2087703;28;34496;-79
2023/07/03 00:14:21;;;;;;;11.20;3.63;;;;;;;-146.25;69.51;52124.91;2089115;28;35686;-80
2023/07/03 00:15:23;;;;;;;10.07;3.10;;;;;;;-146.25;69.57;52104.63;2089259;28;20045;-78
2023/07/03 00:16:25;;;;;;;8.18;3.85;;;;;;;-146.25;69.28;52120.84;2088894;28;36839;-79
2023/07/03 00:17:27;;;;;;;10.43;3.92;;;;;;;-146.25;69.81;52120.84;2089240;28;34488;-80
2023/07/03 00:18:29;;;;;;;11.40;4.03;;;;;;;-146.25;69.65;52106.66;2088684;28;35321;-79
2023/07/03 00:19:31;;;;;;;11.50;3.33;;;;;;;-146.25;69.29;52104.63;2088690;28;38036;-76
2023/07/03 00:20:35;;;;;;;6.78;3.10;;;;;;;-146.25;70.12;52120.84;2088884;28;31639;-79
2023/07/03 00:21:43;;;;;;;10.90;3.40;;;;;;;-146.25;69.88;52112.72;2088901;28;20049;-79
2023/07/03 00:22:48;;;;;;;9.55;3.58;;;;;;;-146.25;69.98;52104.63;2088855;28;32696;-80
2023/07/03 00:23:50;;;;;;;11.43;3.70;;;;;;;-146.25;70.31;52141.13;2088702;28;35430;-79
2023/07/03 00:24:51;;;;;;;9.45;3.50;;;;;;;-146.25;69.91;52102.59;2089489;28;28420;-78
2023/07/03 00:25:53;;;;;;;9.80;3.50;;;;;;;-146.25;69.96;52114.75;2088553;28;36608;-78
2023/07/03 00:26:55;;;;;;;7.22;3.05;;;;;;;-146.25;70.51;52106.66;2088446;28;36869;-79
2023/07/03 00:28:00;;;;;;;10.98;4.22;;;;;;;-146.25;70.60;52112.72;2096605;28;20052;-79
2023/07/03 00:29:04;;;;;;;12.82;3.88;;;;;;;-146.25;71.10;52122.88;2096827;28;20087;-80
2023/07/03 00:30:07;;;;;;;11.50;3.60;;;;;;;-146.25;70.82;52120.84;2088859;28;25201;-80
2023/07/03 00:31:09;;;;;;;9.68;3.88;;;;;;;-146.25;71.10;52098.53;2096941;28;22382;-79
2023/07/03 00:32:11;;;;;;;11.43;3.30;;;;;;;-146.25;70.93;52124.91;2095915;28;34927;-78
2023/07/03 00:33:12;;;;;;;8.80;3.65;;;;;;;-146.25;71.18;52120.84;2097460;28;20044;-80
2023/07/03 00:34:14;;;;;;;9.73;3.78;;;;;;;-146.25;71.77;52110.69;2096214;28;27600;-78
2023/07/03 00:35:16;;;;;;;8.63;3.85;;;;;;;-146.25;72.13;52094.47;2089220;28;27965;-80
2023/07/03 00:36:19;;;;;;;8.05;3.08;;;;;;;-146.25;71.80;52147.19;2088932;28;20046;-79
2023/07/03 00:37:23;;;;;;;8.60;3.15;;;;;;;-146.25;72.08;52086.38;2088849;28;32983;-79
2023/07/03 00:38:25;;;;;;;12.43;3.30;;;;;;;-146.25;72.03;52124.91;2088943;28;20589;-81
2023/07/03 00:39:29;;;;;;;9.98;3.25;;;;;;;-146.25;72.66;52141.13;2097112;28;28394;-83
2023/07/03 00:40:31;;;;;;;12.35;3.90;;;;;;;-146.25;72.40;52098.53;2096586;28;28003;-82
2023/07/03 00:41:33;;;;;;;10.77;3.95;;;;;;;-146.25;72.55;52086.38;2097084;28;20083;-82
2023/07/03 00:42:36;;;;;;;11.57;3.70;;;;;;;-146.25;72.59;52116.78;2095600;28;30069;-82
2023/07/03 00:43:42;;;;;;;10.75;3.88;;;;;;;-146.25;72.74;52086.38;2096719;28;20173;-79
2023/07/03 00:44:44;;;;;;;11.10;3.58;;;;;;;-146.25;72.65;52098.53;2095643;28;29091;-80
2023/07/03 00:45:47;;;;;;;11.40;3.72;;;;;;;-146.25;73.08;52092.44;2088073;28;29545;-79
2023/07/03 00:46:50;;;;;;;10.02;3.60;;;;;;;-146.25;73.04;52088.41;2096589;28;27352;-79
2023/07/03 00:47:53;;;;;;;11.18;4.07;;;;;;;-146.25;72.95;52092.44;2096575;28;27542;-78
2023/07/03 00:48:58;;;;;;;11.85;3.78;;;;;;;-146.25;73.22;52118.81;2096465;28;23103;-80
2023/07/03 00:50:00;;;;;;;10.32;3.75;;;;;;;-146.25;73.46;52133.00;2088253;28;20097;-80
2023/07/03 00:51:05;;;;;;;10.77;3.83;;;;;;;-146.25;74.04;52100.56;2088034;28;20914;-79
2023/07/03 00:52:10;;;;;;;8.15;3.33;;;;;;;-146.25;73.67;52100.56;2096219;28;38217;-80
2023/07/03 00:53:12;;;;;;;14.40;3.90;;;;;;;-146.25;73.99;52106.66;2088499;28;20248;-78
2023/07/03 00:54:17;;;;;;;8.80;3.45;;;;;;;-146.25;73.88;52102.59;2090187;28;21057;-79
2023/07/03 00:55:23;;;;;;;8.07;3.45;;;;;;;-146.25;73.91;52124.91;2096283;28;20072;-78
2023/07/03 00:56:24;;;;;;;10.40;3.65;;;;;;;-146.25;74.43;52080.28;2095509;28;26214;-79
2023/07/03 00:57:28;;;;;;;10.85;4.00;;;;;;;-146.25;74.20;52133.00;2095484;28;31607;-79
2023/07/03 00:58:30;;;;;;;10.55;3.92;;;;;;;-146.25;74.37;52114.75;2088329;28;20142;-79
2023/07/03 00:59:33;;;;;;;12.18;4.05;;;;;;;-146.25;74.64;52126.91;2087433;28;27825;-77
2023/07/03 01:00:49;;;;;;;9.32;3.58;;;;;;;-146.25;74.65;52133.00;2080264;28;20808;-78
2023/07/03 01:02:22;;;;;;;12.05;3.50;;;;;;;-146.25;74.49;52090.44;2081457;28;27827;-78
2023/07/03 01:03:48;;;;;;;10.98;3.80;;;;;;;-146.25;74.59;52114.75;2086948;28;20525;-79
2023/07/03 01:05:07;;;;;;;11.40;3.80;;;;;;;-146.25;75.08;52110.69;2095377;28;24771;-77
2023/07/03 01:06:19;;;;;;;11.35;4.53;;;;;;;-146.25;75.39;52116.78;2087198;28;34489;-80
2023/07/03 01:07:29;;;;;;;9.70;3.83;;;;;;;-146.25;75.22;52120.84;2089773;28;20049;-79
2023/07/03 01:08:33;;;;;;;9.43;3.28;;;;;;;-146.25;75.45;52100.56;2096223;28;20048;-77
2023/07/03 01:09:56;;;;;;;12.98;4.05;;;;;;;-146.25;75.82;52072.19;2095717;28;28473;-77
2023/07/03 01:10:58;;;;;;;9.15;3.42;;;;;;;-146.25;76.42;52084.34;2096178;28;27498;-79
2023/07/03 01:12:02;;;;;;;13.57;4.10;;;;;;;-146.25;76.45;52141.13;2092709;28;33430;-78
2023/07/03 01:13:10;;;;;;;12.07;4.00;;;;;;;-146.25;76.13;52108.66;2096164;28;25898;-79
2023/07/03 01:14:17;;;;;;;11.57;3.90;;;;;;;-146.25;76.94;52114.75;2096054;28;21587;-78
2023/07/03 01:15:27;;;;;;;11.50;3.83;;;;;;;-146.25;77.22;52082.31;2087971;28;20091;-79
2023/07/03 01:16:32;;;;;;;9.50;3.97;;;;;;;-146.25;76.63;52094.47;2080250;28;33038;-78
2023/07/03 01:17:36;;;;;;;12.27;4.10;;;;;;;-146.25;76.87;52153.28;2079901;28;20261;-76
2023/07/03 01:18:40;;;;;;;13.32;4.45;;;;;;;-146.25;77.36;52092.44;2088779;28;20045;-79
2023/07/03 01:19:47;;;;;;;12.77;4.05;;;;;;;-146.25;78.18;52076.22;2095802;28;34224;-79
2023/07/03 01:20:56;;;;;;;13.40;3.80;;;;;;;-146.25;77.42;52124.91;2087358;28;25755;-79
2023/07/03 01:22:22;;;;;;;12.48;4.07;;;;;;;-146.25;78.32;52084.34;2089190;28;20413;-76
2023/07/03 01:24:09;;;;;;;12.35;3.78;;;;;;;-146.25;78.13;52112.72;2094944;28;33439;-78
2023/07/03 01:25:16;;;;;;;10.27;3.85;;;;;;;-146.25;78.45;52114.75;2096045;28;22658;-79
2023/07/03 01:26:21;;;;;;;11.05;4.22;;;;;;;-146.25;77.91;52062.03;2087575;28;20821;-78
2023/07/03 01:27:32;;;;;;;14.85;4.38;;;;;;;-146.25;78.32;52118.81;2087240;28;28742;-78
2023/07/03 01:28:36;;;;;;;14.25;3.95;;;;;;;-146.25;78.09;52100.56;2096259;28;20122;-79
2023/07/03 01:29:44;;;;;;;9.27;3.80;;;;;;;-146.25;78.45;52106.66;2087688;28;20049;-79
2023/07/03 01:30:48;;;;;;;9.98;4.05;;;;;;;-146.25;78.13;52112.72;2079821;28;28109;-78
2023/07/03 01:31:51;;;;;;;8.52;3.65;;;;;;;-146.25;78.00;52120.84;2088224;28;30515;-79
2023/07/03 01:32:55;;;;;;;10.55;3.28;;;;;;;-146.25;78.50;52133.00;2095314;28;28327;-78
2023/07/03 01:33:59;;;;;;;11.80;3.95;;;;;;;-146.25;78.89;52110.69;2087928;28;34401;-79
2023/07/03 01:35:05;;;;;;;16.98;4.07;;;;;;;-146.25;78.93;52102.59;2088149;28;20898;-79
2023/07/03 01:36:11;;;;;;;9.60;4.10;;;;;;;-146.25;78.96;52108.66;2096082;28;22769;-79
2023/07/03 01:37:16;;;;;;;11.02;3.97;;;;;;;-146.25;78.91;52112.72;2095397;28;31624;-77
2023/07/03 01:38:20;;;;;;;13.88;4.00;;;;;;;-146.25;79.20;52108.66;2095390;28;32798;-78
2023/07/03 01:39:22;;;;;;;11.93;4.25;;;;;;;-146.25;78.92;52084.34;2095887;28;20041;-79
2023/07/03 01:40:26;;;;;;;11.75;4.13;;;;;;;-146.25;79.45;52124.91;2095402;28;26602;-77
2023/07/03 01:41:29;;;;;;;11.88;3.90;;;;;;;-146.25;79.57;52130.97;2095263;28;31816;-77
2023/07/03 01:42:35;;;;;;;11.95;3.67;;;;;;;-146.25;79.92;52137.06;2095506;28;24034;-79
2023/07/03 01:43:40;;;;;;;11.55;4.53;;;;;;;-146.25;79.70;52135.03;2095188;28;31084;-78
2023/07/03 01:44:42;;;;;;;11.48;4.60;;;;;;;-146.25;80.10;52112.72;2096255;28;20123;-78
2023/07/03 01:45:46;;;;;;;10.32;4.15;;;;;;;-146.25;79.95;52090.44;2086855;28;33914;-78
2023/07/03 01:46:48;;;;;;;11.30;4.03;;;;;;;-146.25;79.82;52092.44;2087120;28;33410;-78
2023/07/03 01:47:51;;;;;;;10.35;4.25;;;;;;;-146.25;81.05;52149.22;2095196;28;31019;-76
2023/07/03 01:48:53;;;;;;;12.82;4.32;;;;;;;-146.25;80.50;52120.84;2095879;28;20045;-77
2023/07/03 01:49:55;;;;;;;12.70;4.00;;;;;;;-146.25;81.65;52102.59;2095041;28;27278;-78
2023/07/03 01:50:58;;;;;;;15.07;4.28;;;;;;;-146.25;80.89;52064.06;2088334;28;32412;-79
2023/07/03 01:52:23;;;;;;;12.77;4.32;;;;;;;-146.25;81.42;52120.84;2088085;28;20044;-79
2023/07/03 01:53:42;;;;;;;10.40;4.05;;;;;;;-146.25;81.50;52098.53;2095180;28;21488;-78
2023/07/03 01:55:04;;;;;;;16.25;4.72;;;;;;;-146.25;80.96;52108.66;2094237;28;20044;-79
2023/07/03 01:56:23;;;;;;;12.27;4.07;;;;;;;-146.25;80.83;52088.41;2048213;28;1122585;-78
2023/07/03 01:57:58;;;;;;;17.88;4.78;;;;;;;-146.25;81.08;52133.00;2088748;28;20033;-77
2023/07/03 01:59:13;;;;;;;12.30;3.67;;;;;;;-146.25;80.77;52143.13;2095709;28;34597;-79
2023/07/03 02:00:22;;;;;;;12.85;4.07;;;;;;;-146.25;81.10;52130.97;2087100;28;20103;-78
2023/07/03 02:01:34;;;;;;;14.70;4.22;;;;;;;-146.25;81.41;52133.00;2080635;28;29833;-77
2023/07/03 02:02:38;;;;;;;12.13;4.30;;;;;;;-146.25;80.97;52120.84;2089366;28;27686;-79
2023/07/03 02:03:51;;;;;;;12.85;4.18;;;;;;;-146.25;81.05;52157.34;2096265;28;20166;-78
2023/07/03 02:05:04;;;;;;;13.88;4.00;;;;;;;-146.25;81.08;52133.00;2079471;28;30791;-78
2023/07/03 02:06:20;;;;;;;14.43;4.72;;;;;;;-146.25;81.05;52094.47;2083893;28;31477;-78
2023/07/03 02:07:29;;;;;;;14.40;4.50;;;;;;;-146.25;81.26;52102.59;2079990;28;20149;-78
2023/07/03 02:08:34;;;;;;;12.15;4.20;;;;;;;-146.25;82.29;52112.72;2074461;28;20089;-78
2023/07/03 02:09:37;;;;;;;9.70;4.28;;;;;;;-146.25;82.32;52147.19;2072074;28;20046;-78
2023/07/03 02:10:41;;;;;;;12.43;4.20;;;;;;;-146.25;82.28;52114.75;2080587;28;20077;-78
2023/07/03 02:11:47;;;;;;;13.00;4.32;;;;;;;-146.25;82.36;52141.13;2088225;28;20049;-78
2023/07/03 02:12:49;;;;;;;13.00;4.03;;;;;;;-146.25;82.58;52151.25;2088024;28;20164;-78
2023/07/03 02:13:55;;;;;;;14.45;4.88;;;;;;;-146.25;83.16;52116.78;2088335;28;20049;-77
2023/07/03 02:15:06;;;;;;;17.50;4.55;;;;;;;-146.25;83.62;52104.63;2088633;28;20072;-79
2023/07/03 02:16:07;;;;;;;11.85;4.30;;;;;;;-146.25;83.22;52124.91;2088033;28;21010;-77
2023/07/03 02:17:09;;;;;;;13.85;4.32;;;;;;;-146.25;83.29;52104.63;2087973;28;27332;-78
2023/07/03 02:18:17;;;;;;;14.23;4.80;;;;;;;-146.25;84.50;52072.19;2096068;28;27335;-76
2023/07/03 02:19:28;;;;;;;12.35;4.40;;;;;;;-146.25;84.37;52104.63;2087743;28;20042;-79
2023/07/03 02:20:31;;;;;;;19.35;5.07;;;;;;;-146.25;84.92;52116.78;2080832;28;20034;-79
2023/07/03 02:21:33;;;;;;;16.38;4.75;;;;;;;-146.25;85.10;52074.22;2079737;28;20128;-77
2023/07/03 02:22:34;;;;;;;16.40;5.00;;;;;;;-146.25;85.11;52147.19;2079356;28;20176;-79
2023/07/03 02:23:36;;;;;;;17.95;4.95;;;;;;;-146.25;85.22;52149.22;2079639;28;20152;-78
2023/07/03 02:24:40;;;;;;;15.27;5.57;;;;;;;-146.25;85.13;52126.91;2088083;28;20034;-79
2023/07/03 02:25:43;;;;;;;12.30;4.55;;;;;;;-146.25;85.26;52092.44;2096374;28;22574;-78
2023/07/03 02:26:45;;;;;;;12.52;4.82;;;;;;;-146.25;85.64;52122.88;2095744;28;28083;-78
2023/07/03 02:27:50;;;;;;;13.27;4.60;;;;;;;-146.25;85.93;52096.50;2087858;28;20042;-78
2023/07/03 02:28:51;;;;;;;18.30;4.97;;;;;;;-146.25;85.68;52124.91;2087731;28;28400;-77
2023/07/03 02:29:55;;;;;;;13.93;4.80;;;;;;;-146.25;85.56;52114.75;2088133;28;27320;-79
2023/07/03 02:30:57;;;;;;;14.10;4.28;;;;;;;-146.25;86.10;52118.81;2095830;28;28941;-78
2023/07/03 02:31:59;;;;;;;17.40;4.57;;;;;;;-146.25;85.79;52133.00;2095299;28;32262;-79
2023/07/03 02:33:01;;;;;;;11.25;4.47;;;;;;;-146.25;85.70;52106.66;2095829;28;20048;-78
2023/07/03 02:34:05;;;;;;;15.85;4.70;;;;;;;-146.25;85.99;52104.63;2095748;28;20080;-79
2023/07/03 02:35:10;;;;;;;17.38;5.13;;;;;;;-146.25;86.85;52145.16;2088292;28;20156;-79
2023/07/03 02:36:12;;;;;;;12.93;4.43;;;;;;;-146.25;85.99;52155.31;2096440;28;20033;-77
2023/07/03 02:37:14;;;;;;;17.85;4.93;;;;;;;-146.25;86.26;52137.06;2095068;28;28639;-77
2023/07/03 02:38:15;;;;;;;10.00;4.57;;;;;;;-146.25;86.72;52137.06;2087541;28;33551;-79
2023/07/03 02:39:19;;;;;;;18.13;5.10;;;;;;;-146.25;87.19;52080.28;2096106;28;20873;-78
2023/07/03 02:40:21;;;;;;;16.38;4.93;;;;;;;-146.25;87.07;52133.00;2095171;28;39895;-78
2023/07/03 02:41:23;;;;;;;15.48;4.43;;;;;;;-146.25;87.38;52110.69;2087937;28;34787;-78
2023/07/03 02:42:25;;;;;;;14.10;4.55;;;;;;;-146.25;87.78;52116.78;2087493;28;27914;-78
2023/07/03 02:43:32;;;;;;;15.05;5.10;;;;;;;-146.25;87.16;52133.00;2088437;28;20079;-77
2023/07/03 02:44:36;;;;;;;14.00;4.50;;;;;;;-146.25;86.95;52126.91;2095604;28;20151;-78
2023/07/03 02:45:41;;;;;;;11.95;4.65;;;;;;;-146.25;87.33;52114.75;2096019;28;20083;-77
2023/07/03 02:46:44;;;;;;;14.20;4.72;;;;;;;-146.25;87.70;52126.91;2096153;28;20179;-78
2023/07/03 02:47:46;;;;;;;13.90;5.00;;;;;;;-146.25;87.13;52090.44;2095703;28;20049;-78
2023/07/03 02:48:50;;;;;;;12.18;4.18;;;;;;;-146.25;86.57;52118.81;2087797;28;20089;-78
2023/07/03 02:49:54;;;;;;;15.10;4.40;;;;;;;-146.25;87.27;52133.00;2079445;28;20168;-76
2023/07/03 02:50:56;;;;;;;15.98;5.05;;;;;;;-146.25;87.00;52106.66;2087992;28;20048;-79
2023/07/03 02:51:58;;;;;;;14.10;4.60;;;;;;;-146.25;86.80;52145.16;2095693;28;20799;-78
2023/07/03 02:53:03;;;;;;;14.70;4.45;;;;;;;-146.25;87.40;52102.59;2096052;28;20454;-79
2023/07/03 02:54:09;;;;;;;18.70;4.78;;;;;;;-146.25;87.19;52106.66;2095981;28;20049;-79
2023/07/03 02:55:13;;;;;;;14.48;4.80;;;;;;;-146.25;87.50;52130.97;2096281;28;20146;-77
2023/07/03 02:56:17;;;;;;;14.48;4.68;;;;;;;-146.25;87.05;52120.84;2087068;28;20041;-78
2023/07/03 02:57:21;;;;;;;17.40;4.60;;;;;;;-146.25;86.92;52098.53;2087850;28;20049;-79
2023/07/03 02:58:25;;;;;;;17.42;4.35;;;;;;;-146.25;87.61;52108.66;2095700;28;20076;-75
2023/07/03 02:59:30;;;;;;;15.52;4.68;;;;;;;-146.25;87.22;52114.75;2096092;28;20049;-79
2023/07/03 03:00:32;;;;;;;14.40;4.47;;;;;;;-146.25;87.50;52092.44;2096008;28;20053;-77
2023/07/03 03:01:36;;;;;;;17.77;4.50;;;;;;;-146.25;86.85;52124.91;2087491;28;33709;-79
2023/07/03 03:02:37;;;;;;;11.25;4.25;;;;;;;-146.25;87.01;52086.38;2087600;28;20053;-78
2023/07/03 03:03:39;;;;;;;15.13;4.38;;;;;;;-146.25;86.87;52139.09;2095693;28;20906;-79
2023/07/03 03:04:45;;;;;;;13.75;4.43;;;;;;;-146.25;86.70;52108.66;2095277;28;20200;-77
2023/07/03 03:05:47;;;;;;;13.63;4.40;;;;;;;-146.25;87.18;52143.13;2096221;28;20894;-80
2023/07/03 03:06:50;;;;;;;13.07;3.92;;;;;;;-146.25;86.75;52100.56;2087563;28;20080;-79
2023/07/03 03:07:52;;;;;;;15.43;4.85;;;;;;;-146.25;86.71;52153.28;2088100;28;20049;-78
2023/07/03 03:08:54;;;;;;;9.57;4.10;;;;;;;-146.25;86.82;52122.88;2088044;28;26754;-78
2023/07/03 03:09:56;;;;;;;14.68;4.65;;;;;;;-146.25;87.21;52137.06;2095961;28;20090;-80
2023/07/03 03:10:59;;;;;;;16.23;4.18;;;;;;;-146.25;86.77;52124.91;2095905;28;20159;-79
2023/07/03 03:12:01;;;;;;;14.50;3.97;;;;;;;-146.25;87.11;52143.13;2095740;28;20049;-79
2023/07/03 03:13:07;;;;;;;16.25;4.35;;;;;;;-146.25;87.06;52100.56;2095470;28;20168;-78
2023/07/03 03:14:09;;;;;;;16.75;4.53;;;;;;;-146.25;87.07;52120.84;2096131;28;20920;-79
2023/07/03 03:15:11;;;;;;;15.00;4.18;;;;;;;-146.25;87.23;52120.84;2095612;28;20126;-80
2023/07/03 03:16:13;;;;;;;19.92;4.43;;;;;;;-146.25;87.54;52114.75;2096164;28;20132;-78
2023/07/03 03:17:15;;;;;;;15.25;4.45;;;;;;;-146.25;87.23;52128.94;2096185;28;20148;-79
2023/07/03 03:18:16;;;;;;;14.00;4.22;;;;;;;-146.25;87.45;52106.66;2095751;28;29656;-79
2023/07/03 03:19:18;;;;;;;18.08;4.30;;;;;;;-146.25;87.45;52124.91;2095665;28;28136;-78
2023/07/03 03:20:23;;;;;;;14.93;4.43;;;;;;;-146.25;87.28;52102.59;2095588;28;27464;-78
2023/07/03 03:21:25;;;;;;;16.23;4.70;;;;;;;-146.25;87.22;52130.97;2095336;28;20045;-78
2023/07/03 03:22:27;;;;;;;15.18;4.72;;;;;;;-146.25;87.96;52128.94;2087641;28;20968;-79
2023/07/03 03:23:29;;;;;;;18.00;4.80;;;;;;;-146.25;87.81;52163.41;2079387;28;20201;-77
2023/07/03 03:24:30;;;;;;;18.40;4.18;;;;;;;-146.25;87.71;52128.94;2079949;28;20139;-78
2023/07/03 03:25:35;;;;;;;15.25;4.25;;;;;;;-146.25;87.42;52149.22;2087653;28;20097;-76
2023/07/03 03:26:37;;;;;;;14.93;4.60;;;;;;;-146.25;87.54;52159.34;2086949;28;36379;-78
2023/07/03 03:27:38;;;;;;;17.42;4.20;;;;;;;-146.25;87.69;52112.72;2087256;28;24844;-76
2023/07/03 03:28:40;;;;;;;20.45;4.65;;;;;;;-146.25;87.59;52110.69;2087473;28;20110;-78
2023/07/03 03:29:43;;;;;;;14.23;4.05;;;;;;;-146.25;87.92;52135.03;2079408;28;20191;-79
2023/07/03 03:30:46;;;;;;;14.57;4.70;;;;;;;-146.25;87.72;52096.50;2087605;28;20030;-77
2023/07/03 03:31:48;;;;;;;21.65;4.53;;;;;;;-146.25;87.97;52130.97;2087369;28;20917;-79
2023/07/03 03:32:50;;;;;;;13.48;4.13;;;;;;;-146.25;87.96;52120.84;2079470;28;20034;-78
2023/07/03 03:33:54;;;;;;;14.07;4.35;;;;;;;-146.25;88.31;52128.94;2087705;28;20049;-76
2023/07/03 03:34:56;;;;;;;18.42;4.35;;;;;;;-146.25;88.46;52137.06;2087485;28;20172;-78
2023/07/03 03:36:00;;;;;;;15.18;4.22;;;;;;;-146.25;88.35;52163.41;2087260;28;30738;-77
2023/07/03 03:37:03;;;;;;;18.70;4.57;;;;;;;-146.25;88.17;52157.34;2096000;28;20041;-78
2023/07/03 03:38:05;;;;;;;17.45;4.25;;;;;;;-146.25;88.79;52137.06;2087219;28;20096;-78
2023/07/03 03:39:07;;;;;;;16.55;4.53;;;;;;;-146.25;88.35;52135.03;2087655;28;20045;-78
2023/07/03 03:40:10;;;;;;;14.38;3.63;;;;;;;-146.25;88.37;52161.38;2095770;28;20093;-77
2023/07/03 03:41:12;;;;;;;15.35;4.57;;;;;;;-146.25;88.99;52137.06;2095925;28;20153;-77
2023/07/03 03:42:17;;;;;;;17.25;4.18;;;;;;;-146.25;88.55;52116.78;2095723;28;20041;-77
2023/07/03 03:43:19;;;;;;;15.73;4.25;;;;;;;-146.25;88.94;52120.84;2095580;28;20076;-78
2023/07/03 03:44:21;;;;;;;18.35;4.43;;;;;;;-146.25;88.55;52090.44;2087260;28;20839;-77
2023/07/03 03:45:25;;;;;;;14.18;4.30;;;;;;;-146.25;88.58;52130.97;2087800;28;20038;-77
2023/07/03 03:46:27;;;;;;;17.45;4.13;;;;;;;-146.25;89.31;52128.94;2095175;28;27699;-78
2023/07/03 03:47:29;;;;;;;13.88;4.15;;;;;;;-146.25;89.42;52124.91;2089698;28;20902;-78
2023/07/03 03:48:33;;;;;;;15.07;3.80;;;;;;;-146.25;89.39;52110.69;2097334;28;20676;-77
2023/07/03 03:49:36;;;;;;;17.77;4.45;;;;;;;-146.25;88.99;52145.16;2097202;28;20099;-78
2023/07/03 03:50:38;;;;;;;20.73;4.75;;;;;;;-146.25;88.79;52130.97;2096827;28;26842;-75
2023/07/03 03:51:40;;;;;;;18.52;4.55;;;;;;;-146.25;88.79;52149.22;2097280;28;20834;-78
2023/07/03 03:52:45;;;;;;;17.25;4.30;;;;;;;-146.25;89.00;52124.91;2096904;28;21010;-78
2023/07/03 03:53:47;;;;;;;13.98;4.07;;;;;;;-146.25;88.98;52149.22;2096444;28;37591;-78
2023/07/03 03:54:51;;;;;;;16.77;4.28;;;;;;;-146.25;88.91;52104.63;2089690;28;20036;-77
2023/07/03 03:55:53;;;;;;;15.45;4.03;;;;;;;-146.25;89.00;52100.56;2096915;28;20164;-77
2023/07/03 03:56:55;;;;;;;17.95;4.30;;;;;;;-146.25;88.50;52161.38;2097211;28;20063;-77
2023/07/03 03:57:56;;;;;;;12.55;3.67;;;;;;;-146.25;88.59;52108.66;2089202;28;24985;-78
2023/07/03 03:58:58;;;;;;;12.45;3.55;;;;;;;-146.25;88.07;52151.25;2088894;28;33056;-77
2023/07/03 04:00:00;;;;;;;19.13;4.30;;;;;;;-146.25;88.58;52112.72;2089496;28;25463;-79
2023/07/03 04:01:02;;;;;;;14.98;3.83;;;;;;;-146.25;88.28;52092.44;2089300;28;20788;-77
2023/07/03 04:02:07;;;;;;;13.30;3.50;;;;;;;-146.25;88.64;52124.91;2088932;28;26304;-78
2023/07/03 04:03:12;;;;;;;16.08;3.75;;;;;;;-146.25;89.09;52133.00;2088917;28;23689;-77
2023/07/03 04:04:14;;;;;;;16.27;4.10;;;;;;;-146.25;88.97;52167.47;2089687;28;20049;-79
2023/07/03 04:05:16;;;;;;;16.33;3.90;;;;;;;-146.25;88.63;52133.00;2088666;28;33311;-78
2023/07/03 04:06:18;;;;;;;12.27;3.92;;;;;;;-146.25;89.04;52157.34;2089024;28;35942;-79
2023/07/03 04:07:19;;;;;;;19.60;4.00;;;;;;;-146.25;89.00;52135.03;2088864;28;31336;-77
2023/07/03 04:08:21;;;;;;;23.23;4.75;;;;;;;-146.25;88.84;52149.22;2089536;28;29468;-79
2023/07/03 04:09:23;;;;;;;15.07;3.83;;;;;;;-146.25;88.54;52118.81;2088819;28;38021;-75
2023/07/03 04:10:25;;;;;;;17.40;3.70;;;;;;;-146.25;88.35;52137.06;2088990;28;32462;-79
2023/07/03 04:11:30;;;;;;;12.65;3.38;;;;;;;-146.25;88.24;52141.13;2088832;28;36000;-79
2023/07/03 04:12:32;;;;;;;14.75;3.45;;;;;;;-146.25;88.36;52151.25;2088984;28;20065;-79
2023/07/03 04:13:33;;;;;;;20.25;3.88;;;;;;;-146.25;87.56;52181.66;2088595;28;34926;-77
2023/07/03 04:14:37;;;;;;;13.40;4.05;;;;;;;-146.25;86.93;52116.78;2088859;28;37022;-78
2023/07/03 04:16:11;;;;;;;16.42;3.50;;;;;;;-146.25;86.03;52185.72;2088668;28;33195;-77
2023/07/03 04:17:12;;;;;;;17.70;4.32;;;;;;;-146.25;86.11;52141.13;2087644;28;36125;-77
2023/07/03 04:18:14;;;;;;;14.18;3.78;;;;;;;-146.25;85.69;52110.69;2088714;28;40516;-78
2023/07/03 04:19:18;;;;;;;14.35;3.35;;;;;;;-146.25;85.22;52120.84;2089300;28;20038;-78
2023/07/03 04:20:20;;;;;;;20.63;4.05;;;;;;;-146.25;84.67;52114.75;2088703;28;38341;-78
2023/07/03 04:21:22;;;;;;;21.52;4.05;;;;;;;-146.25;85.00;52120.84;2088486;28;33189;-78
2023/07/03 04:22:26;;;;;;;11.02;3.47;;;;;;;-146.25;84.69;52110.69;2089377;28;20853;-77
2023/07/03 04:23:29;;;;;;;17.38;4.38;;;;;;;-146.25;85.45;52116.78;2088762;28;37423;-78
2023/07/03 04:24:31;;;;;;;19.83;4.03;;;;;;;-146.25;85.30;52124.91;2088831;28;35796;-79
2023/07/03 04:25:33;;;;;;;18.25;4.35;;;;;;;-146.25;85.77;52112.72;2089308;28;20926;-77
2023/07/03 04:26:38;;;;;;;14.38;3.53;;;;;;;-146.25;85.91;52120.84;2088711;28;34405;-77
2023/07/03 04:27:42;;;;;;;17.05;3.70;;;;;;;-146.25;85.76;52139.09;2088750;28;33951;-78
2023/07/03 04:28:43;;;;;;;14.65;3.72;;;;;;;-146.25;85.73;52141.13;2088650;28;37014;-78
2023/07/03 04:29:48;;;;;;;21.08;3.83;;;;;;;-146.25;85.78;52122.88;2089216;28;20038;-79
2023/07/03 04:30:50;;;;;;;16.35;3.90;;;;;;;-146.25;86.47;52135.03;2088690;28;37981;-78
2023/07/03 04:31:51;;;;;;;14.27;3.15;;;;;;;-146.25;86.49;52130.97;2088782;28;32842;-80
2023/07/03 04:32:54;;;;;;;16.02;3.92;;;;;;;-146.25;86.59;52096.50;2088627;28;37439;-77
2023/07/03 04:33:57;;;;;;;20.38;3.80;;;;;;;-146.25;86.93;52133.00;2088651;28;39231;-78
2023/07/03 04:35:00;;;;;;;14.45;3.63;;;;;;;-146.25;86.59;52130.97;2088801;28;36637;-78
2023/07/03 04:36:05;;;;;;;19.38;4.60;;;;;;;-146.25;87.06;52143.13;2088268;28;26579;-79
2023/07/03 04:37:08;;;;;;;15.52;3.95;;;;;;;-146.25;86.74;52153.28;2088371;28;35345;-78
2023/07/03 04:38:10;;;;;;;19.60;4.32;;;;;;;-146.25;86.91;52124.91;2089728;28;20892;-78
2023/07/03 04:39:11;;;;;;;16.27;3.90;;;;;;;-146.25;87.07;52092.44;2088705;28;37369;-80
2023/07/03 04:40:13;;;;;;;15.73;3.47;;;;;;;-146.25;86.90;52135.03;2088693;28;38540;-78
2023/07/03 04:41:17;;;;;;;18.88;3.95;;;;;;;-146.25;87.21;52133.00;2088526;28;35772;-79
2023/07/03 04:42:23;;;;;;;17.15;4.28;;;;;;;-146.25;86.99;52118.81;2089614;28;20891;-78
2023/07/03 04:43:25;;;;;;;17.00;4.00;;;;;;;-146.25;87.08;52114.75;2088207;28;34527;-79
2023/07/03 04:44:27;;;;;;;17.98;4.32;;;;;;;-146.25;87.41;52137.06;2088765;28;32449;-79
2023/07/03 04:45:31;;;;;;;15.60;3.90;;;;;;;-146.25;87.85;52143.13;2088559;28;35390;-79
2023/07/03 04:46:34;;;;;;;17.88;4.15;;;;;;;-146.25;87.73;52173.56;2089039;28;20358;-77
2023/07/03 04:47:41;;;;;;;21.58;4.63;;;;;;;-146.25;87.82;52116.78;2096351;28;34300;-78
2023/07/03 04:48:43;;;;;;;20.38;4.05;;;;;;;-146.25;87.17;52104.63;2095567;28;34456;-79
2023/07/03 04:49:45;;;;;;;18.42;4.07;;;;;;;-146.25;86.80;52110.69;2089279;28;20037;-78
2023/07/03 04:50:48;;;;;;;13.18;3.70;;;;;;;-146.25;86.87;52149.22;2088552;28;36423;-80
2023/07/03 04:51:52;;;;;;;19.23;3.90;;;;;;;-146.25;86.86;52135.03;2088479;28;36274;-78
2023/07/03 04:52:53;;;;;;;16.90;3.53;;;;;;;-146.25;86.94;52130.97;2088308;28;33841;-76
2023/07/03 04:53:59;;;;;;;24.02;4.75;;;;;;;-146.25;86.26;52133.00;2088987;28;38005;-78